createdAt,value
2023-02-01T00:09:30.661Z,5.73
2023-02-01T00:24:33.038Z,4.63
2023-02-01T00:39:35.475Z,5.07
2023-02-01T00:54:38.635Z,7.77
2023-02-01T01:09:41.181Z,9.57
2023-02-01T01:24:43.503Z,9.07
2023-02-01T01:39:45.815Z,9.93
2023-02-01T01:54:52.565Z,10.00
2023-02-01T02:10:01.035Z,8.73
2023-02-01T02:25:16.364Z,7.93
2023-02-01T02:40:36.286Z,8.70
2023-02-01T02:55:41.213Z,7.73
2023-02-01T03:11:06.245Z,7.17
2023-02-01T03:26:12.265Z,7.33
2023-02-01T03:41:28.017Z,6.67
2023-02-01T03:56:31.967Z,6.07
2023-02-01T04:11:34.387Z,5.17
2023-02-01T04:26:36.759Z,4.27
2023-02-01T04:41:39.109Z,3.90
2023-02-01T04:56:41.512Z,4.30
2023-02-01T05:12:02.424Z,3.70
2023-02-01T05:27:04.792Z,3.80
2023-02-01T05:42:07.091Z,4.10
2023-02-01T05:57:09.563Z,4.73
2023-02-01T06:12:12.187Z,4.30
2023-02-01T06:27:15.460Z,3.60
2023-02-01T06:42:17.946Z,4.23
2023-02-01T06:57:20.232Z,4.40
2023-02-01T07:12:22.604Z,4.23
2023-02-01T07:27:26.578Z,4.50
2023-02-01T07:42:28.900Z,3.77
2023-02-01T07:57:31.200Z,3.93
2023-02-01T08:12:33.634Z,4.17
2023-02-01T08:27:37.157Z,4.17
2023-02-01T08:42:51.569Z,4.30
2023-02-01T08:57:53.965Z,4.33
2023-02-01T09:12:56.551Z,4.13
2023-02-01T09:27:58.988Z,4.50
2023-02-01T09:43:10.501Z,4.30
2023-02-01T09:58:28.793Z,3.60
2023-02-01T10:13:45.329Z,3.80
2023-02-01T10:28:51.749Z,4.10
2023-02-01T10:43:59.631Z,4.33
2023-02-01T10:59:04.955Z,4.67
2023-02-01T11:14:19.768Z,4.30
2023-02-01T11:29:29.495Z,3.50
2023-02-01T11:44:40.799Z,3.33
2023-02-01T12:00:02.449Z,4.13
2023-02-01T12:15:23.391Z,3.50
2023-02-01T12:30:47.486Z,3.47
2023-02-01T12:45:59.330Z,3.67
2023-02-01T13:01:09.471Z,4.20
2023-02-01T13:16:45.622Z,3.20
2023-02-01T13:31:53.778Z,2.83
2023-02-01T13:47:00.568Z,3.40
2023-02-01T14:02:41.199Z,3.10
2023-02-01T14:17:43.965Z,3.00
2023-02-01T14:32:48.041Z,2.50
2023-02-01T14:48:06.936Z,2.60
2023-02-01T15:03:25.348Z,2.63
2023-02-01T15:18:27.868Z,3.20
2023-02-01T15:33:31.988Z,2.73
2023-02-01T15:48:57.650Z,2.83
2023-02-01T16:04:23.381Z,3.50
2023-02-01T16:19:29.051Z,3.37
2023-02-01T16:34:32.101Z,2.80
2023-02-01T16:49:35.198Z,3.40
2023-02-01T17:04:37.797Z,3.60
2023-02-01T17:19:40.276Z,3.73
2023-02-01T17:34:43.053Z,3.27
2023-02-01T17:49:45.930Z,4.30
2023-02-01T18:04:49.558Z,3.40
2023-02-01T18:19:52.101Z,4.20
2023-02-01T18:34:54.444Z,4.13
2023-02-01T18:49:56.863Z,3.50
2023-02-01T19:04:59.239Z,3.93
2023-02-01T19:20:01.954Z,4.17
2023-02-01T19:35:06.774Z,3.83
2023-02-01T19:50:15.371Z,4.77
2023-02-01T20:05:18.980Z,3.60
2023-02-01T20:20:23.092Z,4.23
2023-02-01T20:35:26.786Z,4.53
2023-02-01T20:50:29.487Z,3.87
2023-02-01T21:05:39.850Z,4.60
2023-02-01T21:20:42.570Z,4.93
2023-02-01T21:35:44.926Z,4.93
2023-02-01T21:50:47.509Z,5.00
2023-02-01T22:05:50.720Z,4.83
2023-02-01T22:20:59.148Z,4.70
2023-02-01T22:36:02.230Z,5.10
2023-02-01T22:51:06.169Z,5.77
2023-02-01T23:06:09.572Z,4.83
2023-02-01T23:21:15.105Z,4.70
2023-02-01T23:36:17.505Z,4.40
2023-02-01T23:51:21.472Z,4.57
